Share

بغداد, العراق

08:23 AM AST on ابریل 24, 2014 (GMT +0300)
Baghdad (KQTZ) Elev 112 ft | 33.25 °N, 44.23 °E | Change Station

Current weather conditions updated 2 hours ago

Clear
صافية
66 °F
Feels Like 66 °F
N
4
ريح متغير ريح from WSW
شروق الشمس 5:22 AM
غروب الشمس 6:40 PM
قمر الهلال الأخير

Today is forecast to be Much Warmer than yesterday.

الضغط 29.91 في
وضوح الرؤية 6.2 أميال
سحابات صافية
نقطة الندى 39 °F
الرطوبة 37%
Rainfall 0.00 في
عمق الثلج Not available.
الأشعة فوق البنفسجية 0 out of 16
Pollen Not available.
جودة الهواء Not available.
Flu Activity Not available.
METAR KQTZ 240255Z 25003KT 9999 CLR 19/04 A2992 RMK SLP129 WND DATA ESTMD ALSTG/SLP ESTMD 52010 LAST

More Conditions Fewer Conditions

الضغط 29.91 في
وضوح الرؤية 6.2 أميال
سحابات صافية
نقطة الندى 39 °F
الرطوبة 37%
Rainfall 0.00 في
عمق الثلج Not available.
الأشعة فوق البنفسجية 0 out of 16
Pollen Not available.
جودة الهواء Not available.
Flu Activity Not available.
METAR KQTZ 240255Z 25003KT 9999 CLR 19/04 A2992 RMK SLP129 WND DATA ESTMD ALSTG/SLP ESTMD 52010 LAST

More Conditions Fewer Conditions

10-Day Weather Forecast

Almanac

علم الفلك

Apr. 24, 2014 Rise Set
Actual Time 5:22 AM AST 6:40 PM AST
Civil Twilight 4:56 AM AST 7:06 PM AST
Nautical Twilight 4:26 AM AST 7:37 PM AST
Astronomical Twilight 3:53 AM AST 8:09 PM AST
قمر 2:02 AM AST 1:46 PM AST
Length Of Visible Light 14h 09m
طول الیوم
13h 17m
Tomorrow will be 1m 51s longer.
الهلال الأخير, 29% of the Moon is Illuminated
هذا اليوم
الهلال الأخير
Apr 29
New
May 6
الربع الاول
May 14
بدر
May 21
الربع الآخر

Yesterday's Extremes

Country Highs Country Lows

Community

  • Stacked
    Stacked
  • clouds approaching Red Sox Nation
    clouds approaching Red Sox Nation
  • Balance
    Balance
  • Nestled In
    Nestled In
  • Stunning Sunrise
    Stunning Sunrise

WunderPhotos

Upload Photos

1,704,569 photos uploaded!

WunderBlogs® & News

Nearby

جودة الهواء

Not available.

عمق الثلج

Not available.

Coastal Water Temperatures

مكان درجات الحرارة
No Stations Reporting

Earthquake Activity

City Distance Mag. Time & Date
No recent earthquake activity has been reported nearby.
Minimum magnitude displayed is 2.5.

Nearby Weather Stations

There are no personal weather stations in this area.

What do you think?

We're not finished. Please let us know what you like, what you don't like, and what you are still missing.